Flight Track Log - Related Links

Times and Time Zones

All times are in EDT time to prevent confusion due to time zone crossing. See the EGF3370 flight status page for this flight to view local times or setup timezone preferences in your user account.

Time Position Orientation Groundspeed Altitude Reporting Facility
EDT Latitude Longitude Course Direction KTS MPH feet Rate Location/Type
Wed 06:22:09 PM 35.5811 -106.1089 115° Southeast 216 249 7,600  Level Albuquerque Center
Wed 06:23:11 PM 35.5306 -106.0447 134° Southeast 293 337 8,400 1,597 Climbing Albuquerque Center
Wed 06:24:13 PM 35.4953 -105.9556 116° Southeast 292 336 10,900 2,129 Climbing Albuquerque Center
Wed 06:25:15 PM 35.4433 -105.8333 118° Southeast 317 365 12,800 1,887 Climbing Albuquerque Center
Wed 06:26:00 PM 35.2715 -105.4358 115° Southeast  Level FlightAware Approximate
Wed 06:26:17 PM 35.3972 -105.7233 117° Southeast 344 396 14,800  Level Albuquerque Center
Wed 06:27:00 PM 35.2249 -105.3145 115° Southeast  Level FlightAware Approximate
Wed 06:27:19 PM 35.3517 -105.6103 116° Southeast 361 415 16,900  Level Albuquerque Center
Wed 06:28:21 PM 35.3050 -105.4994 117° Southeast 363 418 18,900 1,306 Climbing Albuquerque Center
Wed 06:29:23 PM 35.2558 -105.3828 117° Southeast 380 437 19,600 1,403 Climbing Albuquerque Center
Wed 06:30:25 PM 35.2033 -105.2589 117° Southeast 401 461 21,800 2,468 Climbing Albuquerque Center
Wed 06:31:27 PM 35.1439 -105.1189 117° Southeast 398 458 24,700 2,613 Climbing Albuquerque Center
Wed 06:32:29 PM 35.0967 -105.0003 116° Southeast 391 450 27,200 2,177 Climbing Albuquerque Center
Wed 06:33:31 PM 35.0653 -104.8733 107° East 389 448 29,200 1,984 Climbing Albuquerque Center
Wed 06:34:33 PM 35.0314 -104.7497 108° East 384 442 31,300 2,032 Climbing Albuquerque Center
Wed 06:35:35 PM 34.9992 -104.6278 108° East 379 436 33,400 1,742 Climbing Albuquerque Center
Wed 06:36:37 PM 34.9650 -104.5100 109° East 371 427 34,900 1,161 Climbing Albuquerque Center
Wed 06:37:39 PM 34.9319 -104.3858 108° East 381 438 35,800 976 Climbing Albuquerque Center
Wed 06:38:40 PM 34.8906 -104.2375 109° East 393 452 36,900 585 Climbing Albuquerque Center
Wed 06:39:42 PM 34.8539 -104.1067 109° East 403 464 37,000 48 Climbing Albuquerque Center
Wed 06:40:44 PM 34.8144 -103.9647 109° East 431 496 37,000  Level Albuquerque Center
Wed 06:41:46 PM 34.7711 -103.8100 109° East 470 541 37,000  Level Albuquerque Center
Wed 06:42:48 PM 34.7261 -103.6511 109° East 491 565 37,000  Level Albuquerque Center
Wed 06:43:50 PM 34.6819 -103.4911 109° East 496 571 37,000  Level Albuquerque Center
Wed 06:44:52 PM 34.6286 -103.3103 110° East 487 560 37,000  Level Albuquerque Center
Wed 06:45:53 PM 34.5853 -103.1567 109° East 479 551 37,000  Level Albuquerque Center
Wed 06:46:55 PM 34.5414 -103.0031 109° East 479 551 37,000  Level Albuquerque Center
Wed 06:47:57 PM 34.4967 -102.8497 109° East 479 551 37,000  Level Albuquerque Center
Wed 06:48:59 PM 34.4783 -102.6986 98° East 481 554 37,000  Level Albuquerque Center
Wed 06:50:01 PM 34.4625 -102.5369 97° East 483 556 37,000  Level Albuquerque Center
Wed 06:51:03 PM 34.4422 -102.3417 97° East 487 560 37,000  Level Albuquerque Center
Wed 06:52:04 PM 34.4239 -102.1725 97° East 501 577 37,000  Level Albuquerque Center
Wed 06:53:06 PM 34.4069 -102.0039 97° East 506 582 37,000  Level Albuquerque Center
Wed 06:54:08 PM 34.3886 -101.8369 98° East 505 581 37,000  Level Albuquerque Center
Wed 06:55:26 PM 34.3639 -101.6072 97° East 505 581 37,000  Level Fort Worth Center
Wed 06:56:26 PM 34.3442 -101.4403 98° East 505 581 37,000  Level Fort Worth Center
Wed 06:57:26 PM 34.3244 -101.2758 98° East 505 581 37,000  Level Fort Worth Center
Wed 06:58:26 PM 34.3081 -101.1219 97° East 505 581 37,000  Level Fort Worth Center
Wed 06:59:26 PM 34.2861 -100.9425 98° East 499 574 37,000  Level Fort Worth Center
Wed 07:00:26 PM 34.2658 -100.7733 98° East 505 581 37,000  Level Fort Worth Center
Wed 07:01:26 PM 34.2472 -100.6067 98° East 500 575 37,000  Level Fort Worth Center
Wed 07:02:26 PM 34.2303 -100.4478 97° East 494 568 37,000  Level Fort Worth Center
Wed 07:03:26 PM 34.2092 -100.2889 99° East 483 556 37,000  Level Fort Worth Center
Wed 07:04:26 PM 34.1975 -100.1506 96° East 471 542 37,000  Level Fort Worth Center
Wed 07:05:26 PM 34.2092 -99.9950 85° East 465 535 37,000  Level Fort Worth Center
Wed 07:06:26 PM 34.2167 -99.8372 87° East 459 528 37,000  Level Fort Worth Center
Wed 07:07:26 PM 34.2217 -99.6842 88° East 459 528 37,000  Level Fort Worth Center
Wed 07:08:26 PM 34.2181 -99.5308 92° East 454 522 37,000  Level Fort Worth Center
Wed 07:09:26 PM 34.1703 -99.3892 112° Southeast 448 516 37,000  Level Fort Worth Center
Wed 07:10:26 PM 34.1139 -99.2497 116° Southeast 448 516 37,000  Level Fort Worth Center
Wed 07:11:26 PM 34.0575 -99.1056 115° Southeast 462 532 37,000  Level Fort Worth Center
Wed 07:12:26 PM 33.9969 -98.9542 116° Southeast 475 547 37,000  Level Fort Worth Center
Wed 07:13:26 PM 33.9339 -98.8003 116° Southeast 497 572 37,000  Level Fort Worth Center
Wed 07:14:26 PM 33.8708 -98.6542 117° Southeast 497 572 37,000 -1,400 Level Fort Worth Center
Wed 07:15:26 PM 33.8056 -98.4908 116° Southeast 492 566 34,200 -3,000 Descending Fort Worth Center
Wed 07:16:26 PM 33.7503 -98.3478 115° Southeast 479 551 31,000 -3,350 Descending Fort Worth Center
Wed 07:17:26 PM 33.6908 -98.2047 117° Southeast 468 539 27,500 -3,700 Descending Fort Worth Center
Wed 07:18:26 PM 33.6414 -98.0797 115° Southeast 468 539 23,600 -3,800 Descending Fort Worth Center
Wed 07:19:26 PM 33.5858 -97.9419 116° Southeast 462 532 19,900 -3,800 Descending Fort Worth Center
Wed 07:20:26 PM 33.5194 -97.8072 121° Southeast 438 504 16,000 -3,600 Descending Fort Worth Center
Wed 07:21:26 PM 33.4425 -97.7122 134° Southeast 414 476 12,700 -2,750 Descending Fort Worth Center
Wed 07:22:26 PM 33.3717 -97.6297 136° Southeast 371 427 10,500 -1,400 Descending Fort Worth Center
Wed 07:23:26 PM 33.3114 -97.5575 135° Southeast 312 359 9,900 -550 Descending Fort Worth Center
Wed 07:24:26 PM 33.2572 -97.4906 134° Southeast 291 335 9,400 -500 Descending Fort Worth Center
Wed 07:25:26 PM 33.2069 -97.4283 134° Southeast 286 329 8,900 -800 Descending Fort Worth Center
Wed 07:26:26 PM 33.1506 -97.3589 134° Southeast 274 315 7,800 -1,150 Descending Fort Worth Center
Wed 07:27:26 PM 33.1131 -97.3042 129° Southeast 244 281 6,600 -1,500 Descending Fort Worth Center
Wed 07:28:26 PM 33.0650 -97.2447 134° Southeast 233 268 4,800 -1,800 Descending Fort Worth Center

Login

Don't have an account? Register now (free) for customized features, flight alerts, and more!